Time;durP1;ratioP1;P1;durP2;ratioP2;P2;SDS_P1;SDS_P2;PMS_P1;PMS_P2;Temp;Humidity;BMP_temperature;BMP_pressure;BME280_temperature;BME280_humidity;BME280_pressure;Samples;Min_cycle;Max_cycle;Signal;HPM_P1;HPM_P2
2023/10/26 00:02:06;;;;;;;22.83;4.22;;;;;;;14.59;82.05;93954.13;5072509;28;20257;-69
2023/10/26 00:04:32;;;;;;;24.42;4.90;;;;;;;14.48;82.65;93963.13;5054539;28;20032;-69
2023/10/26 00:06:58;;;;;;;17.67;3.85;;;;;;;14.47;81.72;93959.69;5072394;28;20540;-69
2023/10/26 00:09:24;;;;;;;22.25;3.80;;;;;;;14.56;81.69;93959.69;5071230;28;20482;-69
2023/10/26 00:11:50;;;;;;;20.25;3.92;;;;;;;14.72;80.22;93963.03;5037864;28;20037;-69
2023/10/26 00:14:15;;;;;;;14.35;3.90;;;;;;;14.49;80.69;93955.13;5070716;28;20371;-69
2023/10/26 00:16:40;;;;;;;20.73;3.55;;;;;;;14.36;81.15;93948.81;5070465;28;20047;-69
2023/10/26 00:19:06;;;;;;;20.42;4.68;;;;;;;14.21;82.13;93943.50;5072170;28;20556;-69
2023/10/26 00:21:31;;;;;;;16.98;4.10;;;;;;;14.19;82.68;93951.50;5072095;28;20024;-69
2023/10/26 00:23:57;;;;;;;15.48;3.58;;;;;;;14.20;83.30;93960.16;5050188;28;20029;-70
2023/10/26 00:26:22;;;;;;;24.38;4.95;;;;;;;14.16;82.70;93941.41;5066370;28;20024;-69
2023/10/26 00:28:47;;;;;;;23.13;4.22;;;;;;;14.27;82.23;93958.50;5037312;28;20032;-70
2023/10/26 00:31:13;;;;;;;20.20;4.07;;;;;;;14.24;82.00;93959.66;5070473;28;20028;-69
2023/10/26 00:33:39;;;;;;;23.48;4.30;;;;;;;13.96;83.91;93940.19;5054102;28;20032;-70
2023/10/26 00:36:04;;;;;;;24.73;4.82;;;;;;;13.94;83.24;93935.13;5052827;28;20085;-69
2023/10/26 00:38:30;;;;;;;17.17;4.07;;;;;;;14.12;82.79;93942.72;5070429;28;20063;-69
2023/10/26 00:40:56;;;;;;;18.83;4.03;;;;;;;14.10;82.82;93949.91;5071786;28;20036;-69
2023/10/26 00:43:22;;;;;;;17.52;3.95;;;;;;;13.97;82.97;93933.97;5070317;28;20477;-70
2023/10/26 00:45:47;;;;;;;7.78;2.30;;;;;;;14.11;78.82;93930.66;5051863;28;20040;-70
2023/10/26 00:48:13;;;;;;;10.75;2.65;;;;;;;14.37;78.20;93929.53;5053697;28;20471;-70
2023/10/26 00:50:38;;;;;;;6.40;1.90;;;;;;;14.60;75.14;93929.59;5053601;28;20040;-70
2023/10/26 00:53:04;;;;;;;7.13;2.47;;;;;;;14.74;76.20;93927.06;5052064;28;20040;-70
2023/10/26 00:55:29;;;;;;;4.22;1.48;;;;;;;15.05;70.49;93934.03;5053665;28;20021;-70
2023/10/26 00:57:55;;;;;;;6.47;1.48;;;;;;;15.30;70.64;93944.31;5053313;28;20438;-70
2023/10/26 01:00:21;;;;;;;5.95;1.52;;;;;;;15.46;69.06;93925.00;5053386;28;20499;-70
2023/10/26 01:02:47;;;;;;;3.17;1.10;;;;;;;16.07;65.62;93929.16;5068582;28;20025;-70
2023/10/26 01:05:12;;;;;;;4.47;1.40;;;;;;;16.00;66.42;93928.25;5070344;28;20036;-70
2023/10/26 01:07:39;;;;;;;3.13;1.17;;;;;;;16.04;71.06;93934.72;5069880;28;20029;-70
2023/10/26 01:10:05;;;;;;;6.63;1.65;;;;;;;15.98;68.06;93935.47;5069317;28;20035;-70
2023/10/26 01:12:30;;;;;;;3.80;1.30;;;;;;;15.96;70.26;93945.28;5068259;28;20036;-70
2023/10/26 01:14:56;;;;;;;3.67;1.30;;;;;;;15.99;65.59;93931.88;5053263;28;20036;-70
2023/10/26 01:17:21;;;;;;;7.55;1.40;;;;;;;16.36;64.20;93931.91;5035965;28;20494;-69
2023/10/26 01:19:47;;;;;;;4.78;1.35;;;;;;;16.52;62.53;93927.28;5051681;28;20472;-69
2023/10/26 01:22:13;;;;;;;6.00;1.50;;;;;;;16.60;63.40;93928.13;5069448;28;20067;-69
2023/10/26 01:24:39;;;;;;;6.57;1.33;;;;;;;16.47;63.88;93903.41;5071436;28;20089;-69
2023/10/26 01:27:04;;;;;;;6.47;1.10;;;;;;;16.39;63.71;93874.69;5069470;28;20047;-69
2023/10/26 01:29:30;;;;;;;5.22;1.40;;;;;;;16.54;65.73;93904.28;5068331;28;20025;-69
2023/10/26 01:31:56;;;;;;;6.43;1.45;;;;;;;16.56;65.34;93913.78;5052674;28;20516;-70
2023/10/26 01:34:21;;;;;;;3.88;1.10;;;;;;;16.66;62.72;93893.31;5069376;28;20025;-69
2023/10/26 01:36:46;;;;;;;5.10;1.20;;;;;;;16.77;62.31;93913.84;5069719;28;20024;-69
2023/10/26 01:39:13;;;;;;;4.70;1.35;;;;;;;16.77;61.64;93913.84;5068439;28;20036;-69
2023/10/26 01:41:38;;;;;;;4.13;1.20;;;;;;;16.72;61.52;93921.44;5052979;28;20044;-70
2023/10/26 01:44:04;;;;;;;3.38;1.08;;;;;;;17.03;59.91;93921.16;5049397;28;20494;-70
2023/10/26 01:46:29;;;;;;;4.57;0.90;;;;;;;17.09;58.96;93898.59;5049599;28;20120;-69
2023/10/26 01:48:55;;;;;;;4.15;1.73;;;;;;;17.28;58.31;93920.75;5048807;28;20410;-69
2023/10/26 01:51:20;;;;;;;3.60;1.55;;;;;;;17.10;57.94;93876.59;5070741;28;20490;-70
2023/10/26 01:53:46;;;;;;;5.60;1.70;;;;;;;17.28;58.32;93892.69;5069530;28;20517;-69
2023/10/26 01:56:11;;;;;;;8.07;2.08;;;;;;;17.12;60.76;93903.47;5067453;28;20469;-71
2023/10/26 01:58:37;;;;;;;8.82;2.08;;;;;;;17.02;63.52;93905.59;5054388;28;20040;-69
2023/10/26 02:01:02;;;;;;;11.73;2.60;;;;;;;16.68;64.83;93925.41;5074835;28;20475;-69
2023/10/26 02:03:27;;;;;;;10.65;2.53;;;;;;;16.68;65.24;93922.78;5056925;28;20036;-69
2023/10/26 02:05:53;;;;;;;11.32;2.92;;;;;;;16.36;66.15;93926.69;5072327;28;20450;-70
2023/10/26 02:08:18;;;;;;;12.02;2.83;;;;;;;16.21;67.15;93937.16;5073271;28;20036;-69
2023/10/26 02:10:44;;;;;;;10.52;3.00;;;;;;;15.94;68.89;93949.13;5056788;28;20036;-69
2023/10/26 02:13:10;;;;;;;12.75;2.95;;;;;;;15.90;69.27;93937.38;5056547;28;20028;-69
2023/10/26 02:15:35;;;;;;;17.80;2.90;;;;;;;15.79;69.56;93944.66;5071550;28;20024;-69
2023/10/26 02:18:01;;;;;;;7.78;2.47;;;;;;;15.58;70.28;93939.31;5056166;28;20075;-69
2023/10/26 02:20:27;;;;;;;9.90;2.45;;;;;;;15.30;71.24;93933.84;5074364;28;20502;-70
2023/10/26 02:22:52;;;;;;;12.90;3.22;;;;;;;15.44;71.23;93927.81;5074346;28;20043;-70
2023/10/26 02:25:20;;;;;;;9.52;2.03;;;;;;;15.20;71.85;93929.66;5071544;28;20036;-70
2023/10/26 02:27:45;;;;;;;11.63;2.90;;;;;;;15.31;72.02;93932.84;5074180;28;20086;-70
2023/10/26 02:30:11;;;;;;;9.68;3.33;;;;;;;15.33;72.39;93939.53;5072729;28;20087;-70
2023/10/26 02:32:37;;;;;;;10.73;3.03;;;;;;;15.45;71.69;93939.91;5072457;28;20039;-70
2023/10/26 02:35:02;;;;;;;11.40;2.67;;;;;;;15.32;72.16;93939.69;5072928;28;20033;-70
2023/10/26 02:37:28;;;;;;;12.60;3.35;;;;;;;15.30;72.56;93931.22;5072839;28;20028;-70
2023/10/26 02:39:53;;;;;;;13.15;2.97;;;;;;;14.77;74.35;93910.22;5074468;28;20028;-69
2023/10/26 02:42:18;;;;;;;11.02;2.75;;;;;;;14.59;74.45;93896.63;5072384;28;20395;-69
2023/10/26 02:44:44;;;;;;;12.18;3.00;;;;;;;14.59;74.56;93923.56;5074094;28;20040;-69
2023/10/26 02:47:09;;;;;;;10.95;2.55;;;;;;;14.44;75.00;93889.50;5065164;28;20090;-70
2023/10/26 02:49:35;;;;;;;12.30;3.28;;;;;;;14.54;75.01;93897.13;5074313;28;20589;-69
2023/10/26 02:52:00;;;;;;;10.45;2.55;;;;;;;14.63;75.29;93926.66;5071640;28;20039;-70
2023/10/26 02:54:27;;;;;;;12.00;3.65;;;;;;;14.84;74.24;93921.59;5074040;28;20045;-70
2023/10/26 02:56:52;;;;;;;8.52;2.40;;;;;;;14.33;76.09;93918.63;5073720;28;20025;-70
2023/10/26 02:59:17;;;;;;;12.48;2.63;;;;;;;14.41;75.46;93918.59;5072215;28;20517;-69
2023/10/26 03:01:43;;;;;;;9.48;2.45;;;;;;;14.10;76.34;93887.25;5054634;28;20066;-69
2023/10/26 03:04:08;;;;;;;13.95;3.22;;;;;;;14.21;75.73;93901.72;5072348;28;20418;-70
2023/10/26 03:06:37;;;;;;;13.55;2.60;;;;;;;14.25;76.53;93937.75;5073606;28;20501;-70
2023/10/26 03:09:04;;;;;;;14.52;2.50;;;;;;;14.25;76.81;93923.88;5070690;28;20021;-69
2023/10/26 03:11:30;;;;;;;11.60;2.75;;;;;;;14.17;76.37;93916.91;5070350;28;20032;-70
2023/10/26 03:13:55;;;;;;;13.85;3.50;;;;;;;14.09;76.88;93930.00;5053552;28;20040;-69
2023/10/26 03:16:21;;;;;;;12.07;2.60;;;;;;;14.22;76.57;93906.75;5071585;28;20021;-70
2023/10/26 03:18:46;;;;;;;15.88;3.97;;;;;;;14.05;76.19;93885.13;5072021;28;20048;-69
2023/10/26 03:21:14;;;;;;;11.40;3.30;;;;;;;14.04;77.06;93914.84;5037818;28;20509;-70
2023/10/26 03:23:39;;;;;;;7.78;2.90;;;;;;;14.04;77.33;93914.00;5055682;28;20047;-70
2023/10/26 03:26:09;;;;;;;7.25;2.50;;;;;;;14.01;77.33;93914.34;5055286;28;20116;-70
2023/10/26 03:28:35;;;;;;;8.25;2.42;;;;;;;13.90;77.44;93917.34;5072017;28;20518;-70
2023/10/26 03:31:00;;;;;;;7.63;2.53;;;;;;;13.80;78.33;93920.97;5071981;28;20086;-70
2023/10/26 03:33:26;;;;;;;8.90;2.45;;;;;;;14.01;77.85;93937.84;5071914;28;20032;-70
2023/10/26 03:35:51;;;;;;;13.18;2.75;;;;;;;14.09;76.95;93928.19;5055141;28;20130;-72
2023/10/26 03:38:16;;;;;;;7.53;2.03;;;;;;;14.07;77.47;93929.38;5055042;28;20086;-70
2023/10/26 03:40:42;;;;;;;10.27;2.60;;;;;;;13.87;78.00;93928.94;5071618;28;20039;-70
2023/10/26 03:43:07;;;;;;;12.05;2.42;;;;;;;13.91;77.96;93918.97;5071658;28;20044;-70
2023/10/26 03:45:33;;;;;;;11.75;2.75;;;;;;;13.75;78.09;93891.94;5054936;28;20429;-70
2023/10/26 03:47:59;;;;;;;9.68;2.67;;;;;;;13.70;78.42;93896.03;5071548;28;20489;-70
2023/10/26 03:50:24;;;;;;;10.95;2.50;;;;;;;13.81;78.13;93906.91;5054889;28;20427;-70
2023/10/26 03:52:50;;;;;;;13.50;3.03;;;;;;;13.78;78.13;93915.09;5072650;28;20051;-70
2023/10/26 03:55:15;;;;;;;8.13;2.67;;;;;;;13.66;78.65;93899.97;5071468;28;20033;-70
2023/10/26 03:57:41;;;;;;;7.80;2.35;;;;;;;13.80;78.71;93914.94;5070623;28;20021;-70
2023/10/26 04:00:09;;;;;;;14.38;2.80;;;;;;;13.73;78.71;93906.13;5070442;28;20071;-71
2023/10/26 04:02:35;;;;;;;12.65;2.60;;;;;;;13.79;78.58;93885.41;5070727;28;20509;-70
2023/10/26 04:05:00;;;;;;;8.20;2.03;;;;;;;13.66;78.08;93879.91;5054097;28;20036;-70
2023/10/26 04:07:27;;;;;;;10.27;2.30;;;;;;;13.28;79.17;93845.75;5072163;28;20029;-70
2023/10/26 04:09:52;;;;;;;9.07;2.50;;;;;;;13.47;79.63;93901.16;5054557;28;20056;-70
2023/10/26 04:12:18;;;;;;;11.15;2.58;;;;;;;13.54;79.98;93899.50;5050676;28;20025;-70
2023/10/26 04:14:43;;;;;;;9.68;2.15;;;;;;;13.36;79.35;93865.81;5070825;28;20475;-70
2023/10/26 04:17:09;;;;;;;7.63;2.35;;;;;;;13.61;79.54;93921.34;5051167;28;20040;-70
2023/10/26 04:19:35;;;;;;;9.20;2.65;;;;;;;13.46;79.52;93899.53;5054309;28;20076;-70
2023/10/26 04:22:00;;;;;;;7.18;2.35;;;;;;;13.56;80.38;93905.38;5052933;28;20044;-70
2023/10/26 04:24:26;;;;;;;10.30;3.13;;;;;;;13.43;80.36;93928.53;5053761;28;20617;-70
2023/10/26 04:26:51;;;;;;;12.43;3.00;;;;;;;13.55;80.05;93922.03;5070341;28;20482;-70
2023/10/26 04:29:17;;;;;;;8.50;2.70;;;;;;;13.36;80.79;93928.41;5037337;28;20047;-70
2023/10/26 04:31:42;;;;;;;7.07;2.13;;;;;;;13.36;80.66;93905.75;5070569;28;20033;-72
2023/10/26 04:34:07;;;;;;;11.57;2.72;;;;;;;13.29;81.34;93888.31;5053560;28;20471;-70
2023/10/26 04:36:33;;;;;;;10.25;2.17;;;;;;;13.40;80.67;93882.78;5071391;28;20040;-70
2023/10/26 04:38:58;;;;;;;8.38;2.40;;;;;;;13.27;80.87;93883.28;5065410;28;20036;-70
2023/10/26 04:41:24;;;;;;;8.88;2.00;;;;;;;13.42;80.72;93914.69;5056730;28;20491;-71
2023/10/26 04:43:49;;;;;;;11.98;2.78;;;;;;;13.63;79.45;93906.34;5068533;28;20025;-70
2023/10/26 04:46:15;;;;;;;9.73;2.38;;;;;;;13.55;79.83;93893.31;5050067;28;20487;-70
2023/10/26 04:48:40;;;;;;;9.13;3.10;;;;;;;13.67;79.91;93902.41;5036319;28;20020;-70
2023/10/26 04:51:06;;;;;;;12.75;3.22;;;;;;;13.67;79.28;93902.41;5069846;28;20033;-70
2023/10/26 04:53:32;;;;;;;14.00;3.00;;;;;;;13.53;79.35;93877.81;5069839;28;20031;-70
2023/10/26 04:55:57;;;;;;;7.55;2.22;;;;;;;13.64;78.98;93887.09;5053398;28;20032;-70
2023/10/26 04:58:22;;;;;;;9.18;2.42;;;;;;;13.56;78.66;93890.53;5071484;28;20391;-70
2023/10/26 05:00:48;;;;;;;8.70;2.45;;;;;;;13.58;79.02;93908.63;5063348;28;20166;-70
2023/10/26 05:03:13;;;;;;;10.18;3.47;;;;;;;13.45;79.40;93910.94;5062398;28;20032;-70
2023/10/26 05:05:39;;;;;;;9.00;2.22;;;;;;;13.61;79.16;93900.47;5061716;28;20482;-70
2023/10/26 05:08:04;;;;;;;12.63;3.03;;;;;;;13.59;78.19;93884.16;5062625;28;20033;-70
2023/10/26 05:10:29;;;;;;;10.45;2.08;;;;;;;13.34;79.70;93899.88;5065044;28;20043;-70
2023/10/26 05:12:55;;;;;;;8.85;2.65;;;;;;;13.39;79.65;93891.56;5065407;28;20771;-70
2023/10/26 05:15:21;;;;;;;8.82;2.30;;;;;;;13.34;79.86;93912.91;5062950;28;20572;-70
2023/10/26 05:17:46;;;;;;;10.82;2.20;;;;;;;13.32;80.00;93914.88;5064515;28;20060;-70
2023/10/26 05:20:12;;;;;;;7.97;2.20;;;;;;;13.30;80.40;93927.28;5064339;28;20039;-70
2023/10/26 05:22:37;;;;;;;10.30;2.35;;;;;;;13.30;80.18;93929.06;5065964;28;20051;-70
2023/10/26 05:25:08;;;;;;;11.38;2.70;;;;;;;13.34;80.56;93940.78;5066067;28;20029;-70
2023/10/26 05:27:33;;;;;;;12.32;2.30;;;;;;;13.26;80.66;93931.22;5034779;28;20029;-70
2023/10/26 05:29:59;;;;;;;9.55;2.42;;;;;;;13.52;79.96;93920.56;5063615;28;20032;-70
2023/10/26 05:32:24;;;;;;;10.35;2.80;;;;;;;13.30;80.80;93927.28;5063131;28;20040;-71
2023/10/26 05:34:50;;;;;;;11.32;2.92;;;;;;;13.44;80.60;93928.41;5060402;28;20040;-71
2023/10/26 05:37:15;;;;;;;10.57;3.00;;;;;;;13.40;80.64;93925.31;5060060;28;20094;-70
2023/10/26 05:39:41;;;;;;;13.00;3.53;;;;;;;13.30;80.90;93906.41;5058494;28;20031;-71
2023/10/26 05:42:06;;;;;;;7.00;3.00;;;;;;;13.59;80.93;93929.34;5047280;28;20052;-70
2023/10/26 05:44:32;;;;;;;8.63;3.03;;;;;;;13.70;80.45;93933.38;5032052;28;20502;-70
2023/10/26 05:46:59;;;;;;;13.27;2.97;;;;;;;13.67;80.07;93928.50;5065681;28;20062;-70
2023/10/26 05:49:25;;;;;;;9.13;2.92;;;;;;;13.79;80.22;93942.84;5064680;28;20446;-70
2023/10/26 05:51:50;;;;;;;7.18;2.97;;;;;;;13.97;79.66;93950.44;5048249;28;20033;-70
2023/10/26 05:54:16;;;;;;;9.98;3.13;;;;;;;14.22;79.07;93950.34;5065360;28;20487;-70
2023/10/26 05:56:41;;;;;;;6.57;2.67;;;;;;;14.28;78.36;93962.72;5065051;28;20032;-70
2023/10/26 05:59:06;;;;;;;12.20;2.85;;;;;;;14.22;78.10;93958.19;5048897;28;20093;-70
2023/10/26 06:01:32;;;;;;;7.95;2.47;;;;;;;14.21;78.18;93957.38;5060913;28;20036;-70
2023/10/26 06:03:57;;;;;;;8.10;2.50;;;;;;;14.29;77.33;93961.72;5047287;28;20037;-71
2023/10/26 06:06:23;;;;;;;9.38;2.75;;;;;;;14.27;77.38;93950.66;5067589;28;20127;-70
2023/10/26 06:08:48;;;;;;;10.43;3.15;;;;;;;14.47;77.15;93961.50;5052151;28;20040;-70
2023/10/26 06:11:15;;;;;;;13.40;3.53;;;;;;;14.61;76.64;93960.78;5069359;28;20036;-70
2023/10/26 06:13:40;;;;;;;11.70;3.00;;;;;;;14.64;76.23;93972.72;5042729;28;20033;-70
2023/10/26 06:16:06;;;;;;;8.38;2.90;;;;;;;14.63;75.75;93961.44;5065020;28;20033;-70
2023/10/26 06:18:32;;;;;;;8.43;3.17;;;;;;;14.53;77.49;93955.63;5065224;28;20120;-70
2023/10/26 06:21:01;;;;;;;10.18;2.67;;;;;;;14.54;77.51;93952.00;5065015;28;20024;-70
2023/10/26 06:23:28;;;;;;;9.57;3.10;;;;;;;14.50;77.69;93958.53;5046480;28;20124;-70
2023/10/26 06:26:00;;;;;;;10.75;3.72;;;;;;;14.86;75.97;93977.16;5048319;28;20060;-70
2023/10/26 06:28:26;;;;;;;10.60;3.78;;;;;;;14.88;76.55;93974.38;5065334;28;20032;-70
2023/10/26 06:30:51;;;;;;;13.10;3.47;;;;;;;14.89;76.14;93970.75;5047970;28;20037;-70
2023/10/26 06:33:16;;;;;;;16.88;3.60;;;;;;;14.77;76.16;93978.19;5064279;28;20047;-70
2023/10/26 06:35:42;;;;;;;14.82;3.65;;;;;;;14.68;77.75;93971.38;5063729;28;20032;-70
2023/10/26 06:38:07;;;;;;;10.40;3.95;;;;;;;14.80;75.14;93967.38;5029189;28;20029;-70
2023/10/26 06:40:33;;;;;;;13.52;3.88;;;;;;;14.81;75.49;93957.75;5058418;28;20028;-70
2023/10/26 06:43:00;;;;;;;13.57;4.70;;;;;;;14.81;76.42;93969.00;5061806;28;20052;-70
2023/10/26 06:45:25;;;;;;;9.70;3.47;;;;;;;15.03;76.09;93983.09;5064895;28;20434;-70
2023/10/26 06:47:51;;;;;;;13.80;4.35;;;;;;;15.22;75.54;93970.53;5068419;28;20031;-70
2023/10/26 06:50:16;;;;;;;9.20;3.63;;;;;;;15.53;74.69;93981.72;5048856;28;20262;-70
2023/10/26 06:52:41;;;;;;;13.75;4.22;;;;;;;15.69;73.08;93969.50;5051278;28;20033;-70
2023/10/26 06:55:07;;;;;;;13.68;3.92;;;;;;;16.24;71.98;93986.56;5047547;28;20041;-70
2023/10/26 06:57:35;;;;;;;10.90;4.45;;;;;;;16.48;71.02;93978.41;5066360;28;20097;-70
2023/10/26 07:00:01;;;;;;;13.95;4.43;;;;;;;16.88;69.56;93973.69;5066541;28;20513;-76
2023/10/26 07:02:26;;;;;;;7.90;2.50;;;;;;;16.81;64.18;93930.00;5054192;28;20167;-75
2023/10/26 07:04:52;;;;;;;11.50;2.20;;;;;;;17.22;63.37;93966.94;5065997;28;20029;-70
2023/10/26 07:07:17;;;;;;;7.07;2.38;;;;;;;17.47;61.04;93983.13;5053491;28;20036;-70
2023/10/26 07:09:43;;;;;;;11.73;2.67;;;;;;;17.49;63.80;93975.84;5066159;28;20021;-70
2023/10/26 07:12:08;;;;;;;11.52;3.47;;;;;;;17.62;64.23;93975.16;5072055;28;20041;-70
2023/10/26 07:14:34;;;;;;;6.90;2.15;;;;;;;17.60;64.69;93985.03;5070552;28;20028;-70
2023/10/26 07:17:00;;;;;;;12.73;2.67;;;;;;;17.76;61.03;93987.38;5070255;28;20055;-71
2023/10/26 07:19:25;;;;;;;16.55;2.63;;;;;;;17.60;61.33;93969.25;5053367;28;20059;-70
2023/10/26 07:21:50;;;;;;;8.02;1.70;;;;;;;17.81;58.24;93969.25;5070011;28;20041;-70
2023/10/26 07:24:16;;;;;;;7.88;2.28;;;;;;;17.88;57.76;93979.00;5070037;28;20016;-70
2023/10/26 07:26:41;;;;;;;14.93;2.25;;;;;;;17.91;57.66;93960.22;5052843;28;20032;-70
2023/10/26 07:29:07;;;;;;;10.20;1.98;;;;;;;18.09;56.60;93968.44;5053308;28;20559;-70
2023/10/26 07:31:32;;;;;;;9.85;2.22;;;;;;;18.26;53.27;93964.47;5072041;28;20028;-70
2023/10/26 07:33:57;;;;;;;12.25;2.40;;;;;;;18.31;53.39;93961.25;5071925;28;20433;-70
2023/10/26 07:36:25;;;;;;;7.10;2.63;;;;;;;18.37;53.12;93957.03;5055252;28;20032;-70
2023/10/26 07:38:51;;;;;;;8.68;2.00;;;;;;;18.37;54.89;93964.94;5055542;28;20041;-70
2023/10/26 07:41:17;;;;;;;9.02;1.70;;;;;;;18.50;53.27;93959.75;5054964;28;20032;-70
2023/10/26 07:43:42;;;;;;;11.20;2.00;;;;;;;18.47;54.34;93968.81;5071743;28;20028;-70
2023/10/26 07:46:07;;;;;;;8.98;1.92;;;;;;;18.43;52.88;93956.25;5071673;28;20032;-70
2023/10/26 07:48:35;;;;;;;6.60;1.88;;;;;;;18.65;52.14;93959.59;5072316;28;20039;-70
2023/10/26 07:51:01;;;;;;;10.65;2.13;;;;;;;18.77;52.79;93950.13;5071197;28;20089;-70
2023/10/26 07:53:28;;;;;;;9.18;2.75;;;;;;;18.97;53.44;93943.13;5071834;28;20033;-71
2023/10/26 07:55:57;;;;;;;8.13;2.00;;;;;;;18.95;52.45;93933.81;5071433;28;20479;-71
2023/10/26 07:58:24;;;;;;;13.70;2.17;;;;;;;18.67;52.82;93936.53;5072149;28;20499;-71
2023/10/26 08:00:50;;;;;;;12.00;1.90;;;;;;;19.03;50.59;93930.97;5036910;28;20608;-71
2023/10/26 08:03:15;;;;;;;13.10;2.55;;;;;;;18.75;54.71;93910.88;5054600;28;20033;-71
2023/10/26 08:05:40;;;;;;;12.63;3.28;;;;;;;18.46;59.26;93914.59;5054663;28;20036;-71
2023/10/26 08:08:06;;;;;;;9.38;3.10;;;;;;;18.25;60.43;93928.69;5071060;28;20046;-71
2023/10/26 08:10:36;;;;;;;14.10;3.03;;;;;;;18.01;61.02;93927.34;5071001;28;20032;-71
2023/10/26 08:13:03;;;;;;;11.27;3.30;;;;;;;18.12;61.27;93936.50;5070939;28;20029;-72
2023/10/26 08:15:28;;;;;;;12.43;3.88;;;;;;;18.05;61.03;93930.38;5072240;28;20422;-71
2023/10/26 08:17:54;;;;;;;16.55;4.25;;;;;;;17.93;60.71;93935.38;5037559;28;20040;-71
2023/10/26 08:20:19;;;;;;;12.85;3.22;;;;;;;17.57;61.15;93936.31;5070951;28;20472;-71
2023/10/26 08:22:45;;;;;;;19.75;4.13;;;;;;;17.54;62.20;93943.78;5054183;28;20028;-72
2023/10/26 08:25:10;;;;;;;11.77;3.10;;;;;;;17.37;61.58;93919.63;5070921;28;20111;-71
2023/10/26 08:27:38;;;;;;;9.13;2.92;;;;;;;17.64;59.37;93918.00;5054064;28;20044;-71
2023/10/26 08:30:04;;;;;;;11.93;2.92;;;;;;;17.73;59.94;93919.47;5054090;28;20036;-71
2023/10/26 08:32:30;;;;;;;9.30;2.95;;;;;;;17.82;59.57;93915.72;5070819;28;20036;-72
2023/10/26 08:34:56;;;;;;;10.15;2.88;;;;;;;17.81;59.75;93895.72;5054322;28;20034;-72
2023/10/26 08:37:21;;;;;;;13.73;2.95;;;;;;;17.72;58.60;93911.78;5070657;28;20040;-71
2023/10/26 08:39:47;;;;;;;9.00;2.90;;;;;;;17.94;59.14;93915.16;5070659;28;20033;-72
2023/10/26 08:42:12;;;;;;;11.93;3.15;;;;;;;18.12;58.36;93920.72;5070485;28;20024;-71
2023/10/26 08:44:38;;;;;;;9.25;2.53;;;;;;;18.17;59.16;93920.16;5054043;28;20028;-72
2023/10/26 08:47:04;;;;;;;8.27;2.75;;;;;;;18.23;59.25;93919.38;5053830;28;20574;-72
2023/10/26 08:49:32;;;;;;;6.28;2.78;;;;;;;18.33;57.81;93921.63;5037345;28;20025;-71
2023/10/26 08:51:58;;;;;;;7.88;2.70;;;;;;;18.35;55.06;93920.44;5037868;28;20066;-72
2023/10/26 08:54:25;;;;;;;10.57;2.40;;;;;;;18.38;52.99;93929.75;5070442;28;20555;-72
2023/10/26 08:56:51;;;;;;;9.57;2.90;;;;;;;18.43;53.91;93903.66;5070197;28;20525;-72
2023/10/26 08:59:16;;;;;;;10.23;2.97;;;;;;;18.68;55.84;93907.38;5070232;28;20590;-72
2023/10/26 09:01:48;;;;;;;11.05;2.53;;;;;;;18.76;56.27;93909.06;5053536;28;20029;-72
2023/10/26 09:04:14;;;;;;;10.73;2.85;;;;;;;18.93;55.27;93898.97;5070195;28;20529;-72
2023/10/26 09:06:47;;;;;;;9.70;2.72;;;;;;;18.82;54.36;93883.78;5069858;28;20116;-72
2023/10/26 09:09:13;;;;;;;7.95;2.38;;;;;;;19.27;53.14;93884.00;5069961;28;20036;-71
2023/10/26 09:11:39;;;;;;;11.55;2.50;;;;;;;19.73;54.43;93862.13;5070067;28;20036;-72
2023/10/26 09:14:14;;;;;;;9.82;2.67;;;;;;;19.75;54.25;93854.81;5053374;28;20051;-71
2023/10/26 09:16:44;;;;;;;13.02;3.17;;;;;;;19.98;49.78;93860.44;5036698;28;20047;-71
2023/10/26 09:19:11;;;;;;;10.20;2.30;;;;;;;20.32;45.20;93853.22;5053823;28;20044;-71
2023/10/26 09:21:56;;;;;;;6.60;1.70;;;;;;;20.19;44.59;93826.88;5036739;28;20040;-72
2023/10/26 09:24:26;;;;;;;11.07;2.80;;;;;;;20.44;50.39;93845.44;5053809;28;20030;-72
2023/10/26 09:27:01;;;;;;;11.77;2.47;;;;;;;20.41;50.54;93835.31;5053288;28;20036;-71
2023/10/26 09:29:40;;;;;;;11.63;2.45;;;;;;;20.65;50.96;93850.44;5053204;28;20036;-71
2023/10/26 09:32:06;;;;;;;9.30;2.00;;;;;;;20.47;47.37;93835.25;5052956;28;20033;-72
2023/10/26 09:34:40;;;;;;;7.20;2.28;;;;;;;20.62;48.84;93839.50;5071374;28;20104;-72
2023/10/26 09:37:07;;;;;;;5.65;1.83;;;;;;;20.42;46.46;93832.47;5069632;28;20099;-72
2023/10/26 09:39:34;;;;;;;9.27;2.08;;;;;;;20.43;46.09;93830.63;5053084;28;20410;-72
2023/10/26 09:42:01;;;;;;;5.88;1.55;;;;;;;20.62;43.74;93842.13;5053022;28;20032;-72
2023/10/26 09:44:30;;;;;;;6.63;1.80;;;;;;;20.84;43.43;93847.84;5071108;28;20024;-71
2023/10/26 09:46:56;;;;;;;6.97;1.50;;;;;;;20.70;43.84;93837.41;5070824;28;20037;-72
2023/10/26 09:49:22;;;;;;;11.23;1.90;;;;;;;21.12;44.67;93847.47;5069617;28;20035;-72
2023/10/26 09:51:48;;;;;;;11.07;3.03;;;;;;;21.10;47.05;93858.25;5069576;28;20537;-71
2023/10/26 09:54:13;;;;;;;12.55;3.28;;;;;;;21.36;47.10;93845.84;5069574;28;20025;-71
2023/10/26 09:56:46;;;;;;;7.75;2.58;;;;;;;21.35;46.86;93842.41;5052889;28;20418;-73
2023/10/26 09:59:12;;;;;;;9.02;2.53;;;;;;;21.37;45.32;93856.25;5052984;28;20033;-71
2023/10/26 10:01:38;;;;;;;12.95;2.42;;;;;;;21.54;45.94;93832.72;5052791;28;20044;-73
2023/10/26 10:04:08;;;;;;;8.38;1.73;;;;;;;21.61;44.12;93825.50;5052797;28;20021;-72
2023/10/26 10:07:02;;;;;;;8.07;2.10;;;;;;;21.71;42.80;93826.88;5052704;28;20056;-72
2023/10/26 10:09:28;;;;;;;9.20;1.98;;;;;;;21.81;42.82;93809.47;5070019;28;20035;-72
2023/10/26 10:12:05;;;;;;;6.68;1.50;;;;;;;21.67;40.89;93802.69;5069337;28;20028;-71
2023/10/26 10:14:50;;;;;;;5.47;2.17;;;;;;;21.94;40.07;93794.47;5070922;28;20069;-71
2023/10/26 10:17:17;;;;;;;8.73;2.17;;;;;;;22.04;40.98;93784.19;5069164;28;20039;-72
2023/10/26 10:19:48;;;;;;;6.13;1.75;;;;;;;22.05;40.80;93775.22;5054711;28;20049;-72
2023/10/26 10:22:39;;;;;;;7.40;1.65;;;;;;;22.19;39.74;93778.53;5041502;28;20036;-72
2023/10/26 10:25:10;;;;;;;10.20;1.95;;;;;;;22.30;42.84;93762.72;5074466;28;20077;-72
2023/10/26 10:27:58;;;;;;;5.40;1.40;;;;;;;22.11;39.40;93786.75;5057366;28;20060;-71
2023/10/26 10:30:28;;;;;;;6.13;1.50;;;;;;;22.25;40.27;93786.38;5070715;28;20091;-71
2023/10/26 10:32:53;;;;;;;6.78;1.42;;;;;;;22.59;39.45;93804.44;5056424;28;20056;-72
2023/10/26 10:35:21;;;;;;;5.38;1.40;;;;;;;22.73;38.34;93806.69;5056286;28;20067;-72
2023/10/26 10:38:12;;;;;;;6.28;1.70;;;;;;;22.64;37.99;93794.78;5073094;28;20089;-72
2023/10/26 10:40:39;;;;;;;4.72;1.33;;;;;;;22.71;38.54;93781.47;5074043;28;20028;-72
2023/10/26 10:43:05;;;;;;;7.05;1.77;;;;;;;22.46;37.95;93769.22;5056223;28;20103;-71
2023/10/26 10:45:30;;;;;;;7.82;1.88;;;;;;;22.26;39.57;93732.47;5072758;28;20032;-72
2023/10/26 10:47:57;;;;;;;6.50;1.63;;;;;;;22.39;39.10;93746.53;5073988;28;20047;-71
2023/10/26 10:50:22;;;;;;;5.25;1.40;;;;;;;;;;5072744;28;20086;-72
2023/10/26 10:52:48;;;;;;;6.20;1.83;;;;;;;22.50;39.95;93745.75;5073803;28;20028;-71
2023/10/26 10:55:26;;;;;;;4.03;1.67;;;;;;;22.83;38.85;93766.41;5056050;28;20116;-72
2023/10/26 10:57:53;;;;;;;4.63;1.50;;;;;;;22.66;39.25;93750.41;5073789;28;20416;-71
2023/10/26 11:00:19;;;;;;;3.65;1.40;;;;;;;22.90;37.91;93750.41;5073675;28;20037;-72
2023/10/26 11:02:49;;;;;;;3.78;1.40;;;;;;;22.94;39.37;93760.34;5072401;28;20020;-72
2023/10/26 11:05:16;;;;;;;6.20;1.30;;;;;;;22.76;39.17;93736.59;5072493;28;20517;-71
2023/10/26 11:07:41;;;;;;;5.78;1.50;;;;;;;22.86;37.58;93736.84;5055873;28;20399;-71
2023/10/26 11:10:07;;;;;;;4.40;1.85;;;;;;;22.78;37.13;93726.59;5055793;28;20075;-71
2023/10/26 11:12:33;;;;;;;6.03;1.65;;;;;;;22.91;37.43;93755.50;5073567;28;20462;-71
2023/10/26 11:14:58;;;;;;;4.20;1.80;;;;;;;22.92;37.36;93741.22;5073966;28;20029;-71
2023/10/26 11:17:24;;;;;;;5.65;2.03;;;;;;;22.79;37.50;93720.28;5072196;28;20024;-71
2023/10/26 11:19:50;;;;;;;3.47;1.65;;;;;;;22.97;37.38;93751.97;5055536;28;20048;-71
2023/10/26 11:22:16;;;;;;;3.95;1.60;;;;;;;23.06;37.16;93733.88;5073293;28;20414;-71
2023/10/26 11:24:44;;;;;;;9.20;1.92;;;;;;;23.02;38.08;93759.22;5072294;28;20033;-71
2023/10/26 11:27:14;;;;;;;5.15;1.50;;;;;;;23.14;38.16;93752.09;5071973;28;20028;-71